Time;durP1;ratioP1;P1;durP2;ratioP2;P2;SDS_P1;SDS_P2;PMS_P1;PMS_P2;Temp;Humidity;BMP_temperature;BMP_pressure;BME280_temperature;BME280_humidity;BME280_pressure;Samples;Min_cycle;Max_cycle;Signal;HPM_P1;HPM_P2
2022/12/27 00:00:04;;;;;;;0.20;0.10;;;;;;;;;;5009608;28;20089;-87
2022/12/27 00:02:31;;;;;;;0.20;0.10;;;;;;;;;;5015218;28;20141;-86
2022/12/27 00:04:58;;;;;;;0.20;0.10;;;;;;;;;;4995886;28;20045;-88
2022/12/27 00:07:24;;;;;;;0.20;0.10;;;;;;;;;;5016993;28;20110;-85
2022/12/27 00:09:50;;;;;;;0.20;0.10;;;;;;;;;;5018490;28;20041;-86
2022/12/27 00:12:16;;;;;;;0.20;0.10;;;;;;;;;;4999082;28;20156;-85
2022/12/27 00:14:42;;;;;;;0.20;0.10;;;;;;;;;;4998781;28;20057;-84
2022/12/27 00:17:08;;;;;;;0.20;0.10;;;;;;;;;;5001404;28;20141;-82
2022/12/27 00:19:34;;;;;;;0.20;0.10;;;;;;;;;;4998864;28;20906;-87
2022/12/27 00:22:00;;;;;;;0.20;0.10;;;;;;;;;;4999802;28;20128;-86
2022/12/27 00:24:26;;;;;;;0.20;0.10;;;;;;;;;;5003969;28;20116;-86
2022/12/27 00:26:52;;;;;;;0.43;0.40;;;;;;;;;;5019945;28;20088;-86
2022/12/27 00:29:18;;;;;;;0.20;0.10;;;;;;;;;;5017539;28;20041;-83
2022/12/27 00:31:44;;;;;;;0.20;0.10;;;;;;;;;;5019029;28;20543;-85
2022/12/27 00:34:11;;;;;;;1.23;0.50;;;;;;;;;;5003667;28;20120;-85
2022/12/27 00:36:37;;;;;;;9.82;0.90;;;;;;;;;;5002561;28;20073;-85
2022/12/27 00:39:05;;;;;;;0.20;0.10;;;;;;;;;;5020221;28;20487;-87
2022/12/27 00:41:31;;;;;;;0.20;0.20;;;;;;;;;;4999244;28;20038;-85
2022/12/27 00:43:57;;;;;;;0.20;0.10;;;;;;;;;;5017947;28;20040;-85
2022/12/27 00:46:23;;;;;;;0.20;0.10;;;;;;;;;;5019792;28;20501;-85
2022/12/27 00:48:51;;;;;;;0.20;0.10;;;;;;;;;;5017391;28;20037;-85
2022/12/27 00:51:22;;;;;;;0.20;0.10;;;;;;;;;;5001233;28;20064;-87
2022/12/27 00:53:49;;;;;;;0.20;0.10;;;;;;;;;;5018999;28;20050;-85
2022/12/27 00:56:16;;;;;;;0.20;0.10;;;;;;;;;;5016852;28;20045;-86
2022/12/27 00:58:42;;;;;;;0.20;0.10;;;;;;;;;;5004438;28;20092;-84
2022/12/27 01:01:13;;;;;;;0.20;0.10;;;;;;;;;;5021454;28;20038;-86
2022/12/27 01:03:39;;;;;;;0.20;0.20;;;;;;;;;;5019731;28;20049;-84
2022/12/27 01:06:12;;;;;;;0.20;0.10;;;;;;;;;;5017293;28;20423;-88
2022/12/27 01:08:38;;;;;;;0.20;0.10;;;;;;;;;;5003600;28;20037;-86
2022/12/27 01:11:05;;;;;;;0.20;0.15;;;;;;;;;;5016362;28;20041;-85
2022/12/27 01:13:31;;;;;;;0.20;0.10;;;;;;;;;;5011326;28;20041;-86
2022/12/27 01:15:57;;;;;;;0.20;0.10;;;;;;;;;;5013296;28;20469;-85
2022/12/27 01:18:23;;;;;;;0.20;0.10;;;;;;;;;;4996399;28;20518;-85
2022/12/27 01:20:49;;;;;;;0.20;0.10;;;;;;;;;;5013847;28;20044;-86
2022/12/27 01:23:18;;;;;;;0.20;0.10;;;;;;;;;;4999556;28;20215;-86
2022/12/27 01:25:44;;;;;;;0.20;0.10;;;;;;;;;;5013396;28;20052;-87
2022/12/27 01:28:13;;;;;;;2.63;2.38;;;;;;;;;;5016602;28;20038;-86
2022/12/27 01:30:44;;;;;;;0.20;0.10;;;;;;;;;;5016458;28;20088;-86
2022/12/27 01:33:10;;;;;;;0.20;0.10;;;;;;;;;;4996538;28;20076;-85
2022/12/27 01:35:36;;;;;;;0.20;0.10;;;;;;;;;;4994244;28;20730;-87
2022/12/27 01:38:05;;;;;;;0.20;0.10;;;;;;;;;;5014847;28;20041;-85
2022/12/27 01:40:31;;;;;;;0.20;0.10;;;;;;;;;;4999315;28;20061;-85
2022/12/27 01:42:57;;;;;;;0.20;0.10;;;;;;;;;;5018588;28;20033;-84
2022/12/27 01:45:32;;;;;;;0.20;0.10;;;;;;;;;;5015196;28;20049;-85
2022/12/27 01:48:22;;;;;;;0.20;0.10;;;;;;;;;;4999022;28;20034;-84
2022/12/27 01:50:51;;;;;;;0.20;0.10;;;;;;;;;;5026284;28;20213;-85
2022/12/27 01:53:18;;;;;;;0.20;0.10;;;;;;;;;;5015724;28;20128;-85
2022/12/27 01:55:55;;;;;;;0.20;0.10;;;;;;;;;;5016722;28;20045;-86
2022/12/27 01:58:27;;;;;;;0.20;0.10;;;;;;;;;;5017797;28;20440;-86
2022/12/27 02:00:54;;;;;;;0.20;0.10;;;;;;;;;;5012100;28;20079;-85
2022/12/27 02:03:26;;;;;;;0.20;0.10;;;;;;;;;;5017308;28;20045;-87
2022/12/27 02:05:55;;;;;;;0.20;0.10;;;;;;;;;;5017503;28;20607;-85
2022/12/27 02:08:26;;;;;;;0.20;0.10;;;;;;;;;;5019773;28;20523;-86
2022/12/27 02:10:53;;;;;;;0.20;0.10;;;;;;;;;;5014805;28;20407;-85
2022/12/27 02:13:22;;;;;;;2.13;2.03;;;;;;;;;;5001100;28;20124;-85
2022/12/27 02:15:48;;;;;;;0.20;0.10;;;;;;;;;;5017652;28;20124;-86
2022/12/27 02:18:15;;;;;;;0.20;0.10;;;;;;;;;;5002642;28;20038;-85
2022/12/27 02:21:01;;;;;;;0.20;0.10;;;;;;;;;;5013596;28;20106;-86
2022/12/27 02:26:21;;;;;;;0.20;0.20;;;;;;;;;;5013520;28;20041;-88
2022/12/27 02:29:06;;;;;;;0.20;0.10;;;;;;;;;;5016177;28;20037;-85
2022/12/27 02:31:39;;;;;;;0.20;0.10;;;;;;;;;;5017133;28;20033;-86
2022/12/27 02:34:08;;;;;;;0.68;0.65;;;;;;;;;;5018780;28;20094;-83
2022/12/27 02:36:36;;;;;;;0.20;0.10;;;;;;;;;;5003599;28;20140;-85
2022/12/27 02:39:03;;;;;;;0.20;0.10;;;;;;;;;;5016808;28;20046;-85
2022/12/27 02:55:38;;;;;;;0.20;0.10;;;;;;;;;;5017915;28;20381;-87
2022/12/27 02:58:19;;;;;;;0.20;0.20;;;;;;;;;;5023483;28;20122;-84
2022/12/27 03:03:56;;;;;;;0.20;0.10;;;;;;;;;;5037411;28;20120;-89
2022/12/27 03:06:42;;;;;;;0.25;0.25;;;;;;;;;;5015432;28;20049;-88
2022/12/27 03:09:11;;;;;;;0.20;0.10;;;;;;;;;;5002059;28;20676;-85
2022/12/27 03:17:34;;;;;;;0.20;0.10;;;;;;;;;;5020572;28;20451;-86
2022/12/27 03:25:40;;;;;;;0.20;0.10;;;;;;;;;;5019761;28;20508;-86
2022/12/27 03:33:41;;;;;;;0.20;0.10;;;;;;;;;;5013550;28;20401;-84
2022/12/27 03:39:15;;;;;;;1.00;0.38;;;;;;;;;;5009386;28;20045;-85
2022/12/27 03:44:49;;;;;;;0.20;0.10;;;;;;;;;;5017685;28;20515;-85
2022/12/27 03:47:18;;;;;;;0.20;0.10;;;;;;;;;;5004101;28;20037;-84
2022/12/27 03:49:48;;;;;;;0.20;0.10;;;;;;;;;;5002540;28;20041;-84
2022/12/27 03:52:19;;;;;;;0.20;0.10;;;;;;;;;;5030718;28;20057;-84
2022/12/27 03:54:47;;;;;;;0.20;0.10;;;;;;;;;;5007035;28;20073;-83
2022/12/27 03:57:20;;;;;;;0.20;0.10;;;;;;;;;;4997843;28;20149;-87
2022/12/27 03:59:47;;;;;;;0.20;0.10;;;;;;;;;;5014265;28;20042;-84
2022/12/27 04:02:13;;;;;;;0.20;0.10;;;;;;;;;;4997133;28;20051;-88
2022/12/27 04:04:39;;;;;;;0.20;0.10;;;;;;;;;;4992769;28;20034;-84
2022/12/27 04:07:05;;;;;;;0.20;0.10;;;;;;;;;;4996126;28;20669;-85
2022/12/27 04:36:59;;;;;;;0.20;0.10;;;;;;;;;;5063605;28;20071;-86
2022/12/27 04:39:25;;;;;;;0.20;0.10;;;;;;;;;;5040503;28;20119;-84
2022/12/27 04:55:57;;;;;;;0.20;0.10;;;;;;;;;;5076916;28;20056;-86
2022/12/27 04:58:23;;;;;;;0.20;0.10;;;;;;;;;;5054398;28;20036;-86
2022/12/27 05:03:34;;;;;;;0.20;0.10;;;;;;;;;;5072618;28;20051;-85
2022/12/27 05:06:00;;;;;;;0.20;0.10;;;;;;;;;;5054037;28;20618;-84
2022/12/27 05:13:58;;;;;;;0.20;0.10;;;;;;;;;;5073938;28;20044;-85
2022/12/27 05:16:25;;;;;;;0.20;0.10;;;;;;;;;;5057236;28;20525;-83
2022/12/27 05:18:51;;;;;;;0.20;0.10;;;;;;;;;;5067796;28;20054;-85
2022/12/27 05:21:17;;;;;;;0.20;0.10;;;;;;;;;;5061949;28;20131;-85
2022/12/27 05:26:29;;;;;;;0.20;0.10;;;;;;;;;;5079746;28;20747;-84
2022/12/27 05:28:56;;;;;;;0.88;0.85;;;;;;;;;;5052629;28;20036;-84
2022/12/27 05:31:22;;;;;;;0.20;0.10;;;;;;;;;;5054761;28;20067;-84
2022/12/27 05:33:49;;;;;;;0.20;0.10;;;;;;;;;;5077429;28;20406;-83
2022/12/27 05:36:16;;;;;;;0.20;0.10;;;;;;;;;;5058528;28;20037;-85
2022/12/27 05:38:42;;;;;;;0.43;0.43;;;;;;;;;;5075161;28;20036;-84
2022/12/27 05:41:08;;;;;;;0.20;0.10;;;;;;;;;;5089697;27;21934;-85
2022/12/27 05:43:34;;;;;;;0.30;0.30;;;;;;;;;;5073415;28;20119;-85
2022/12/27 05:46:08;;;;;;;0.20;0.20;;;;;;;;;;5074060;28;20066;-85
2022/12/27 05:48:34;;;;;;;0.20;0.10;;;;;;;;;;5071152;28;20044;-85
2022/12/27 05:51:04;;;;;;;0.20;0.10;;;;;;;;;;5059368;28;20077;-82
2022/12/27 05:53:30;;;;;;;0.20;0.10;;;;;;;;;;5073728;28;20434;-87
2022/12/27 05:55:57;;;;;;;0.20;0.10;;;;;;;;;;5058561;28;20171;-84
2022/12/27 05:58:23;;;;;;;0.20;0.10;;;;;;;;;;5073476;28;20127;-84
2022/12/27 06:00:49;;;;;;;0.20;0.10;;;;;;;;;;5058066;28;20051;-83
2022/12/27 06:03:15;;;;;;;0.20;0.10;;;;;;;;;;5058127;28;20032;-83
2022/12/27 06:05:42;;;;;;;0.20;0.10;;;;;;;;;;5053866;28;20044;-86
2022/12/27 06:08:08;;;;;;;0.20;0.10;;;;;;;;;;5074299;28;21752;-84
2022/12/27 06:10:34;;;;;;;0.20;0.10;;;;;;;;;;5075926;28;20181;-84
2022/12/27 06:13:00;;;;;;;0.20;0.10;;;;;;;;;;5072928;28;20132;-84
2022/12/27 06:15:26;;;;;;;0.20;0.10;;;;;;;;;;5056939;28;20403;-86
2022/12/27 06:17:52;;;;;;;0.20;0.10;;;;;;;;;;5059181;28;20039;-83
2022/12/27 06:20:19;;;;;;;0.63;0.47;;;;;;;;;;5076702;28;20053;-85
2022/12/27 06:22:45;;;;;;;0.20;0.10;;;;;;;;;;5077242;28;20032;-86
2022/12/27 06:25:11;;;;;;;0.20;0.10;;;;;;;;;;5066399;28;20032;-85
2022/12/27 06:27:37;;;;;;;0.20;0.10;;;;;;;;;;5074251;28;20039;-85
2022/12/27 06:30:03;;;;;;;0.20;0.10;;;;;;;;;;5061548;28;20071;-86
2022/12/27 06:32:29;;;;;;;0.30;0.30;;;;;;;;;;5060148;28;20067;-84
2022/12/27 06:34:55;;;;;;;0.20;0.10;;;;;;;;;;5062888;28;20040;-83
2022/12/27 06:37:21;;;;;;;0.20;0.10;;;;;;;;;;5066066;28;21399;-85
2022/12/27 06:39:48;;;;;;;0.20;0.10;;;;;;;;;;5061976;28;20735;-85
2022/12/27 06:42:14;;;;;;;0.20;0.10;;;;;;;;;;5065431;28;20467;-86
2022/12/27 06:44:40;;;;;;;0.20;0.10;;;;;;;;;;5087466;28;20086;-86
2022/12/27 06:47:06;;;;;;;0.20;0.10;;;;;;;;;;5063433;28;20032;-85
2022/12/27 06:49:32;;;;;;;0.20;0.10;;;;;;;;;;5083794;28;20495;-86
2022/12/27 06:52:01;;;;;;;0.20;0.10;;;;;;;;;;5067348;28;20103;-85
2022/12/27 06:54:27;;;;;;;0.20;0.10;;;;;;;;;;5063860;28;20052;-82
2022/12/27 06:56:55;;;;;;;0.20;0.10;;;;;;;;;;5066271;28;20054;-85
2022/12/27 06:59:24;;;;;;;0.20;0.10;;;;;;;;;;5062523;28;20036;-84
2022/12/27 07:01:52;;;;;;;0.20;0.10;;;;;;;;;;5094901;28;20040;-86
2022/12/27 07:04:19;;;;;;;0.20;0.10;;;;;;;;;;5077056;28;20130;-85
2022/12/27 07:06:45;;;;;;;0.20;0.10;;;;;;;;;;5076226;28;20071;-84
2022/12/27 07:09:11;;;;;;;0.20;0.10;;;;;;;;;;5064843;28;20079;-87
2022/12/27 07:11:39;;;;;;;0.20;0.10;;;;;;;;;;5082692;28;20055;-87
2022/12/27 07:14:09;;;;;;;0.20;0.10;;;;;;;;;;5080685;28;20066;-85
2022/12/27 07:16:35;;;;;;;0.20;0.10;;;;;;;;;;5097416;28;20043;-86
2022/12/27 07:19:01;;;;;;;0.20;0.10;;;;;;;;;;5058143;28;20040;-85
2022/12/27 07:21:28;;;;;;;0.20;0.10;;;;;;;;;;5057631;28;20044;-85
2022/12/27 07:23:54;;;;;;;0.20;0.10;;;;;;;;;;5099822;28;20651;-86
2022/12/27 07:26:29;;;;;;;0.20;0.10;;;;;;;;;;5080057;28;20082;-85
2022/12/27 07:28:59;;;;;;;0.43;0.32;;;;;;;;;;5080713;28;20051;-83
2022/12/27 07:31:32;;;;;;;0.50;0.40;;;;;;;;;;5079558;28;20039;-88
2022/12/27 07:34:00;;;;;;;0.20;0.10;;;;;;;;;;5065610;28;20070;-85
2022/12/27 07:36:33;;;;;;;0.20;0.10;;;;;;;;;;5075690;28;20044;-84
2022/12/27 07:38:59;;;;;;;0.20;0.10;;;;;;;;;;5102166;28;20343;-83
2022/12/27 07:41:26;;;;;;;0.20;0.10;;;;;;;;;;5081641;28;20052;-84
2022/12/27 07:43:52;;;;;;;0.20;0.10;;;;;;;;;;5080578;28;20071;-84
2022/12/27 07:46:19;;;;;;;0.20;0.10;;;;;;;;;;5077879;28;20048;-84
2022/12/27 07:48:46;;;;;;;0.20;0.10;;;;;;;;;;5065480;28;20462;-84
2022/12/27 07:51:12;;;;;;;0.20;0.10;;;;;;;;;;5060748;28;20043;-84
2022/12/27 07:53:40;;;;;;;0.20;0.10;;;;;;;;;;5097648;27;20036;-86
2022/12/27 07:56:10;;;;;;;0.20;0.10;;;;;;;;;;5061367;28;20044;-85
2022/12/27 07:58:39;;;;;;;0.20;0.10;;;;;;;;;;5080160;28;20090;-85
2022/12/27 08:01:05;;;;;;;0.20;0.10;;;;;;;;;;5068386;28;20086;-83
2022/12/27 08:03:32;;;;;;;0.20;0.10;;;;;;;;;;5080092;28;20058;-85
2022/12/27 08:05:58;;;;;;;0.20;0.10;;;;;;;;;;5079965;28;20283;-84
2022/12/27 08:08:26;;;;;;;0.20;0.10;;;;;;;;;;5076953;28;20036;-85
2022/12/27 08:10:53;;;;;;;0.20;0.10;;;;;;;;;;5082169;28;20496;-83
2022/12/27 08:13:19;;;;;;;0.20;0.10;;;;;;;;;;5057628;28;20047;-84
2022/12/27 08:15:45;;;;;;;0.20;0.10;;;;;;;;;;5075086;28;20032;-85
2022/12/27 08:18:11;;;;;;;0.20;0.10;;;;;;;;;;5078093;28;20040;-84
2022/12/27 08:20:37;;;;;;;0.20;0.10;;;;;;;;;;5055896;28;20786;-85
2022/12/27 08:23:04;;;;;;;0.20;0.10;;;;;;;;;;5075900;28;20044;-86
2022/12/27 08:25:30;;;;;;;0.20;0.10;;;;;;;;;;5067673;28;20427;-84
2022/12/27 08:28:06;;;;;;;0.20;0.10;;;;;;;;;;5090826;28;20031;-86
2022/12/27 08:30:32;;;;;;;0.20;0.10;;;;;;;;;;5082005;28;20115;-85
2022/12/27 08:33:00;;;;;;;0.20;0.10;;;;;;;;;;5083685;28;20083;-86
2022/12/27 08:35:29;;;;;;;0.20;0.10;;;;;;;;;;5083413;28;20402;-85
2022/12/27 08:37:55;;;;;;;0.20;0.10;;;;;;;;;;5087587;28;20028;-85
2022/12/27 08:40:21;;;;;;;0.20;0.10;;;;;;;;;;5081228;28;20037;-83
2022/12/27 08:42:47;;;;;;;0.20;0.10;;;;;;;;;;5079409;28;20108;-83
2022/12/27 08:45:13;;;;;;;0.20;0.10;;;;;;;;;;5073257;28;20052;-84
2022/12/27 08:47:39;;;;;;;0.20;0.10;;;;;;;;;;5087237;28;20045;-83
2022/12/27 08:50:06;;;;;;;0.20;0.10;;;;;;;;;;5070235;28;20055;-84
2022/12/27 08:52:32;;;;;;;0.20;0.10;;;;;;;;;;5064051;28;20036;-86
2022/12/27 08:54:58;;;;;;;0.20;0.10;;;;;;;;;;5087182;28;20499;-84
2022/12/27 08:57:24;;;;;;;0.20;0.10;;;;;;;;;;5087774;28;20029;-84
2022/12/27 08:59:50;;;;;;;0.20;0.10;;;;;;;;;;5086206;28;20162;-87
2022/12/27 09:02:17;;;;;;;0.20;0.10;;;;;;;;;;5088253;28;20032;-85
2022/12/27 09:04:43;;;;;;;0.20;0.10;;;;;;;;;;5075368;28;20333;-85
2022/12/27 09:07:09;;;;;;;0.20;0.10;;;;;;;;;;5081699;28;20048;-86
2022/12/27 09:09:35;;;;;;;0.20;0.10;;;;;;;;;;5085095;28;20032;-85
2022/12/27 09:12:01;;;;;;;0.73;0.73;;;;;;;;;;5067616;28;20079;-84
2022/12/27 09:14:27;;;;;;;0.50;0.50;;;;;;;;;;5089219;28;20036;-85
2022/12/27 09:16:53;;;;;;;0.20;0.10;;;;;;;;;;5088052;28;20047;-84
2022/12/27 09:19:19;;;;;;;0.20;0.10;;;;;;;;;;5078837;28;20040;-84
2022/12/27 09:21:45;;;;;;;0.20;0.10;;;;;;;;;;5052031;28;20048;-84
2022/12/27 09:24:12;;;;;;;0.68;0.25;;;;;;;;;;5065246;28;20067;-83
2022/12/27 09:26:39;;;;;;;0.20;0.10;;;;;;;;;;5072936;28;20071;-84
2022/12/27 09:29:06;;;;;;;0.20;0.10;;;;;;;;;;5060678;28;20126;-84
2022/12/27 09:31:32;;;;;;;0.20;0.10;;;;;;;;;;5070895;28;20046;-85
2022/12/27 09:34:01;;;;;;;0.20;0.10;;;;;;;;;;5084785;28;20191;-84
2022/12/27 09:36:29;;;;;;;0.20;0.10;;;;;;;;;;5081599;28;20130;-85
2022/12/27 09:38:55;;;;;;;0.20;0.10;;;;;;;;;;5069992;28;20046;-84
2022/12/27 09:41:27;;;;;;;0.43;0.40;;;;;;;;;;5067404;28;20044;-85
2022/12/27 09:44:03;;;;;;;0.20;0.10;;;;;;;;;;5059908;28;20039;-83
2022/12/27 09:47:01;;;;;;;0.20;0.10;;;;;;;;;;5081792;28;20043;-83
2022/12/27 09:49:33;;;;;;;0.20;0.10;;;;;;;;;;5023807;28;20044;-84
2022/12/27 09:52:04;;;;;;;0.20;0.10;;;;;;;;;;5066517;28;21074;-85
2022/12/27 09:54:54;;;;;;;0.20;0.10;;;;;;;;;;5054863;28;20307;-85
2022/12/27 09:57:23;;;;;;;0.20;0.10;;;;;;;;;;5093812;27;20510;-85
2022/12/27 09:59:51;;;;;;;0.20;0.10;;;;;;;;;;5081861;28;20036;-83
2022/12/27 10:02:24;;;;;;;0.20;0.10;;;;;;;;;;5082643;28;20040;-83
2022/12/27 10:04:51;;;;;;;0.20;0.10;;;;;;;;;;5061436;28;20490;-85
2022/12/27 10:07:28;;;;;;;0.30;0.30;;;;;;;;;;5064859;28;20108;-84
2022/12/27 10:09:57;;;;;;;0.20;0.10;;;;;;;;;;5069168;28;20039;-84
2022/12/27 10:12:26;;;;;;;0.20;0.10;;;;;;;;;;5069243;28;20036;-84
2022/12/27 10:15:02;;;;;;;0.20;0.10;;;;;;;;;;5080081;28;20418;-84
2022/12/27 10:17:49;;;;;;;0.20;0.10;;;;;;;;;;5080738;28;20043;-85
2022/12/27 10:20:35;;;;;;;0.20;0.10;;;;;;;;;;5058928;28;20040;-85
2022/12/27 10:23:12;;;;;;;0.20;0.10;;;;;;;;;;5085119;28;20044;-85
2022/12/27 10:25:38;;;;;;;0.20;0.10;;;;;;;;;;5059543;28;20040;-87
2022/12/27 10:28:16;;;;;;;0.20;0.10;;;;;;;;;;5059637;28;20044;-86
2022/12/27 10:30:42;;;;;;;0.20;0.10;;;;;;;;;;5068347;22;20071;-85
2022/12/27 10:33:39;;;;;;;0.20;0.10;;;;;;;;;;5018563;28;20044;-86
2022/12/27 10:36:25;;;;;;;0.20;0.10;;;;;;;;;;5021885;28;20687;-86
2022/12/27 10:38:51;;;;;;;0.20;0.10;;;;;;;;;;5012539;28;20672;-86
2022/12/27 10:41:17;;;;;;;0.20;0.00;;;;;;;;;;5022845;28;20503;-85
2022/12/27 10:43:48;;;;;;;0.20;0.10;;;;;;;;;;5001330;28;20265;-87
2022/12/27 10:46:15;;;;;;;0.20;0.10;;;;;;;;;;4999714;28;20037;-86
2022/12/27 10:48:52;;;;;;;0.20;0.20;;;;;;;;;;5018105;28;20049;-86
2022/12/27 10:51:18;;;;;;;0.20;0.10;;;;;;;;;;5001476;28;20034;-84
2022/12/27 10:53:44;;;;;;;0.20;0.10;;;;;;;;;;5022109;28;20037;-87
2022/12/27 10:56:29;;;;;;;0.20;0.10;;;;;;;;;;5017003;28;20431;-88
2022/12/27 10:59:09;;;;;;;0.20;0.10;;;;;;;;;;5004030;28;20060;-86
2022/12/27 11:01:35;;;;;;;0.20;0.10;;;;;;;;;;4992403;28;20512;-87
2022/12/27 11:04:21;;;;;;;0.20;0.10;;;;;;;;;;4997792;28;20435;-86
2022/12/27 11:07:08;;;;;;;0.30;0.30;;;;;;;;;;5006113;28;20041;-87
2022/12/27 11:09:34;;;;;;;0.20;0.10;;;;;;;;;;4996882;28;20444;-85
2022/12/27 11:12:18;;;;;;;0.20;0.10;;;;;;;;;;5002869;28;20092;-86
2022/12/27 11:14:55;;;;;;;0.20;0.10;;;;;;;;;;5000334;28;20136;-86
2022/12/27 11:17:27;;;;;;;0.20;0.10;;;;;;;;;;5013096;28;20041;-86
2022/12/27 11:19:55;;;;;;;0.20;0.17;;;;;;;;;;5003034;28;20527;-85
2022/12/27 11:22:21;;;;;;;0.20;0.10;;;;;;;;;;5020909;28;20156;-86
2022/12/27 11:24:48;;;;;;;0.20;0.10;;;;;;;;;;5003351;28;20361;-87
2022/12/27 11:27:22;;;;;;;0.20;0.10;;;;;;;;;;5008258;28;20037;-85
2022/12/27 11:29:53;;;;;;;0.20;0.10;;;;;;;;;;5024898;28;20393;-86
2022/12/27 11:32:22;;;;;;;0.20;0.10;;;;;;;;;;5008912;28;20074;-86
2022/12/27 11:34:50;;;;;;;0.20;0.10;;;;;;;;;;5020125;28;20085;-84
2022/12/27 11:37:21;;;;;;;0.20;0.10;;;;;;;;;;5019871;28;20150;-86
2022/12/27 11:39:51;;;;;;;0.20;0.10;;;;;;;;;;5018533;28;20140;-87
2022/12/27 11:42:31;;;;;;;0.20;0.17;;;;;;;;;;5020314;28;20154;-86
2022/12/27 11:45:02;;;;;;;0.63;0.63;;;;;;;;;;5022045;28;20698;-84
2022/12/27 11:47:37;;;;;;;0.20;0.10;;;;;;;;;;5018966;28;20125;-86
2022/12/27 11:50:29;;;;;;;0.20;0.10;;;;;;;;;;5005580;28;20033;-86
2022/12/27 11:53:14;;;;;;;0.20;0.10;;;;;;;;;;5008895;28;20122;-86
2022/12/27 11:55:46;;;;;;;0.20;0.10;;;;;;;;;;5003327;28;20045;-88
2022/12/27 11:58:12;;;;;;;0.20;0.10;;;;;;;;;;5015867;28;20045;-86
2022/12/27 12:01:05;;;;;;;0.20;0.10;;;;;;;;;;5021786;28;20075;-86
2022/12/27 12:03:51;;;;;;;0.20;0.10;;;;;;;;;;4992647;28;20049;-84
2022/12/27 12:06:17;;;;;;;0.20;0.10;;;;;;;;;;5018889;28;20045;-88
2022/12/27 12:09:02;;;;;;;0.20;0.10;;;;;;;;;;5021667;28;20480;-83
2022/12/27 12:11:31;;;;;;;0.20;0.10;;;;;;;;;;5003528;28;20547;-87
2022/12/27 12:14:06;;;;;;;0.20;0.10;;;;;;;;;;5022383;28;20504;-85
2022/12/27 12:16:35;;;;;;;0.20;0.20;;;;;;;;;;5016276;28;20180;-85
2022/12/27 12:19:10;;;;;;;0.20;0.10;;;;;;;;;;5019723;28;20041;-86
2022/12/27 12:21:47;;;;;;;0.20;0.10;;;;;;;;;;5017776;28;20037;-86
2022/12/27 12:24:20;;;;;;;0.20;0.10;;;;;;;;;;5020792;28;20037;-87
2022/12/27 12:26:52;;;;;;;0.20;0.10;;;;;;;;;;5021712;28;20041;-86
2022/12/27 12:29:26;;;;;;;3.72;0.68;;;;;;;;;;5004100;28;20048;-87
2022/12/27 12:32:01;;;;;;;0.20;0.10;;;;;;;;;;5014560;28;20048;-86
2022/12/27 12:34:54;;;;;;;0.20;0.10;;;;;;;;;;4998585;28;20119;-85
2022/12/27 12:37:44;;;;;;;0.20;0.10;;;;;;;;;;5022508;28;20516;-86
2022/12/27 12:40:10;;;;;;;0.20;0.10;;;;;;;;;;5016296;28;20045;-85
2022/12/27 12:42:55;;;;;;;0.20;0.10;;;;;;;;;;4999099;28;20607;-86
2022/12/27 12:45:40;;;;;;;0.20;0.10;;;;;;;;;;5014839;28;20042;-85
2022/12/27 12:48:15;;;;;;;0.20;0.10;;;;;;;;;;5004039;28;20492;-87
2022/12/27 12:51:03;;;;;;;0.20;0.10;;;;;;;;;;4994204;28;20041;-86
2022/12/27 12:53:29;;;;;;;0.20;0.10;;;;;;;;;;5001631;28;20038;-87
2022/12/27 12:55:55;;;;;;;0.20;0.10;;;;;;;;;;5018102;28;20088;-87
2022/12/27 12:58:45;;;;;;;0.20;0.10;;;;;;;;;;5001785;28;20035;-84
2022/12/27 13:01:39;;;;;;;0.20;0.10;;;;;;;;;;5018910;28;20064;-86
2022/12/27 13:04:28;;;;;;;0.20;0.10;;;;;;;;;;5018875;28;20380;-87
2022/12/27 13:07:13;;;;;;;0.20;0.10;;;;;;;;;;4996530;28;20036;-87
2022/12/27 13:09:46;;;;;;;0.20;0.10;;;;;;;;;;5017960;28;20036;-86
2022/12/27 13:12:18;;;;;;;0.20;0.10;;;;;;;;;;5016978;28;20045;-85
2022/12/27 13:14:56;;;;;;;0.20;0.10;;;;;;;;;;5016877;28;20075;-86
2022/12/27 13:17:27;;;;;;;0.20;0.10;;;;;;;;;;5002483;28;20057;-86
2022/12/27 13:20:02;;;;;;;0.20;0.10;;;;;;;;;;5015621;28;20041;-87
2022/12/27 13:22:47;;;;;;;0.20;0.10;;;;;;;;;;5019004;28;20099;-87
2022/12/27 13:25:19;;;;;;;0.20;0.10;;;;;;;;;;5018671;28;20045;-86
2022/12/27 13:28:08;;;;;;;0.20;0.15;;;;;;;;;;5015558;28;20041;-86
2022/12/27 13:31:00;;;;;;;0.20;0.10;;;;;;;;;;5018902;28;20483;-87
2022/12/27 13:33:29;;;;;;;0.20;0.20;;;;;;;;;;5016695;28;20602;-84
2022/12/27 13:35:55;;;;;;;0.20;0.10;;;;;;;;;;4998505;28;20504;-86
2022/12/27 13:38:40;;;;;;;0.20;0.10;;;;;;;;;;5020264;28;20041;-85
2022/12/27 13:41:16;;;;;;;0.20;0.10;;;;;;;;;;5015413;28;20675;-86
2022/12/27 13:43:49;;;;;;;0.20;0.10;;;;;;;;;;4995914;28;20038;-86
2022/12/27 13:46:16;;;;;;;0.20;0.10;;;;;;;;;;5019180;28;20069;-85
2022/12/27 13:49:05;;;;;;;0.20;0.10;;;;;;;;;;5002657;28;20041;-85
2022/12/27 13:51:34;;;;;;;0.20;0.10;;;;;;;;;;5004507;28;20403;-85
2022/12/27 13:54:21;;;;;;;0.20;0.10;;;;;;;;;;5002181;28;20376;-87
2022/12/27 13:56:53;;;;;;;0.20;0.10;;;;;;;;;;5017841;28;20518;-86
2022/12/27 13:59:38;;;;;;;0.20;0.10;;;;;;;;;;5020541;28;20040;-85
2022/12/27 14:02:29;;;;;;;0.20;0.10;;;;;;;;;;5015797;28;20049;-86
2022/12/27 14:05:04;;;;;;;0.20;0.10;;;;;;;;;;5000171;28;20081;-85
2022/12/27 14:07:46;;;;;;;0.20;0.10;;;;;;;;;;5004125;28;20441;-88
2022/12/27 14:10:30;;;;;;;0.90;0.60;;;;;;;;;;4993476;28;20095;-88
2022/12/27 14:13:00;;;;;;;0.20;0.10;;;;;;;;;;4995456;28;20420;-85
2022/12/27 14:15:48;;;;;;;0.20;0.10;;;;;;;;;;4999506;28;20053;-86
2022/12/27 14:18:26;;;;;;;0.20;0.20;;;;;;;;;;5021608;28;20051;-84
2022/12/27 14:20:57;;;;;;;0.30;0.20;;;;;;;;;;5013838;28;20041;-86
2022/12/27 14:23:26;;;;;;;0.20;0.10;;;;;;;;;;5000472;28;20038;-85
2022/12/27 14:26:06;;;;;;;0.20;0.20;;;;;;;;;;5021649;28;20037;-85
2022/12/27 14:28:51;;;;;;;0.20;0.10;;;;;;;;;;5025022;28;20049;-87
2022/12/27 14:31:26;;;;;;;0.20;0.10;;;;;;;;;;5025453;28;20120;-85
2022/12/27 14:34:06;;;;;;;0.20;0.10;;;;;;;;;;5042822;28;20500;-84
2022/12/27 14:36:51;;;;;;;0.20;0.10;;;;;;;;;;5004430;28;20550;-84
2022/12/27 14:39:20;;;;;;;0.20;0.10;;;;;;;;;;5003841;28;20159;-87
2022/12/27 14:41:46;;;;;;;0.20;0.20;;;;;;;;;;5007034;28;20095;-86
2022/12/27 14:44:31;;;;;;;0.20;0.10;;;;;;;;;;5027075;28;20041;-85
2022/12/27 14:47:09;;;;;;;0.20;0.20;;;;;;;;;;5001103;28;20030;-86
2022/12/27 14:49:50;;;;;;;0.20;0.10;;;;;;;;;;5004736;28;20041;-87
2022/12/27 14:52:35;;;;;;;0.20;0.10;;;;;;;;;;5002050;28;20056;-87
2022/12/27 14:55:19;;;;;;;0.20;0.10;;;;;;;;;;5000280;28;20033;-86
2022/12/27 14:57:45;;;;;;;0.20;0.10;;;;;;;;;;5018358;28;20092;-85
2022/12/27 15:00:15;;;;;;;0.20;0.10;;;;;;;;;;5023270;28;20037;-87
2022/12/27 15:02:53;;;;;;;0.20;0.10;;;;;;;;;;5022470;28;20552;-86
2022/12/27 15:05:35;;;;;;;0.20;0.10;;;;;;;;;;5004782;28;20072;-88
2022/12/27 15:08:19;;;;;;;0.20;0.10;;;;;;;;;;5024786;28;20057;-86
2022/12/27 15:10:45;;;;;;;0.20;0.10;;;;;;;;;;5016452;28;20439;-85
2022/12/27 15:13:11;;;;;;;0.32;0.30;;;;;;;;;;5021410;28;20103;-85
2022/12/27 15:15:53;;;;;;;1.05;0.57;;;;;;;;;;5021872;28;20454;-89
2022/12/27 15:18:31;;;;;;;0.20;0.20;;;;;;;;;;5012022;28;20284;-86
2022/12/27 15:21:00;;;;;;;0.20;0.10;;;;;;;;;;5018743;28;20048;-87
2022/12/27 15:23:30;;;;;;;0.20;0.10;;;;;;;;;;5021302;28;20201;-87
2022/12/27 15:25:59;;;;;;;0.20;0.10;;;;;;;;;;5024793;28;20196;-87
2022/12/27 15:28:31;;;;;;;0.20;0.15;;;;;;;;;;5035647;28;20082;-87
2022/12/27 15:31:04;;;;;;;0.20;0.10;;;;;;;;;;5008607;28;20048;-85
2022/12/27 15:33:37;;;;;;;0.20;0.10;;;;;;;;;;5025413;28;20442;-87
2022/12/27 15:36:06;;;;;;;0.20;0.20;;;;;;;;;;5019403;28;20049;-85
2022/12/27 15:38:49;;;;;;;0.20;0.10;;;;;;;;;;4997605;28;20132;-85
2022/12/27 15:41:36;;;;;;;0.20;0.15;;;;;;;;;;5015772;28;20042;-85
2022/12/27 15:44:40;;;;;;;0.20;0.10;;;;;;;;;;4987921;28;20045;-87
2022/12/27 15:47:22;;;;;;;1.25;1.15;;;;;;;;;;4960621;28;20030;-86
2022/12/27 15:50:17;;;;;;;0.20;0.10;;;;;;;;;;4965978;28;20051;-85
2022/12/27 15:52:46;;;;;;;0.20;0.10;;;;;;;;;;4995673;28;20570;-86
2022/12/27 15:55:16;;;;;;;0.25;0.25;;;;;;;;;;5015586;28;20068;-86
2022/12/27 15:57:42;;;;;;;0.20;0.13;;;;;;;;;;5002272;28;20080;-87
2022/12/27 16:00:14;;;;;;;0.20;0.10;;;;;;;;;;4991986;28;20041;-87
2022/12/27 16:02:43;;;;;;;0.20;0.10;;;;;;;;;;5019608;28;20045;-86
2022/12/27 16:05:09;;;;;;;0.20;0.10;;;;;;;;;;4998487;28;20071;-88
2022/12/27 16:07:36;;;;;;;0.20;0.10;;;;;;;;;;5019830;28;20044;-86
2022/12/27 16:10:27;;;;;;;0.20;0.10;;;;;;;;;;5008230;28;20116;-86
2022/12/27 16:12:54;;;;;;;0.20;0.10;;;;;;;;;;5021744;28;20037;-86
2022/12/27 16:15:32;;;;;;;0.65;0.65;;;;;;;;;;5014195;28;20037;-86
2022/12/27 16:18:02;;;;;;;0.20;0.10;;;;;;;;;;5023294;28;20049;-85
2022/12/27 16:20:28;;;;;;;0.20;0.10;;;;;;;;;;5020427;28;20112;-84
2022/12/27 16:23:00;;;;;;;0.20;0.13;;;;;;;;;;5005858;28;20065;-82
2022/12/27 16:25:30;;;;;;;0.20;0.10;;;;;;;;;;5014816;28;20476;-84
2022/12/27 16:28:04;;;;;;;0.20;0.10;;;;;;;;;;5015698;28;20034;-83
2022/12/27 16:30:50;;;;;;;0.20;0.10;;;;;;;;;;5049843;22;20047;-82
2022/12/27 16:33:25;;;;;;;0.20;0.10;;;;;;;;;;5066121;28;20068;-84
2022/12/27 16:36:03;;;;;;;0.20;0.10;;;;;;;;;;5060231;28;20502;-82
2022/12/27 16:38:30;;;;;;;0.20;0.10;;;;;;;;;;5044397;28;20045;-83
2022/12/27 16:41:10;;;;;;;0.40;0.20;;;;;;;;;;5058650;28;20441;-83
2022/12/27 16:43:59;;;;;;;0.20;0.10;;;;;;;;;;5062071;28;20756;-82